createdAt,value
2019-01-21T00:02:06.975Z,102161.55
2019-01-21T00:05:10.961Z,102162.37
2019-01-21T00:08:14.809Z,102157.91
2019-01-21T00:11:18.632Z,102159.08
2019-01-21T00:14:22.452Z,102150.89
2019-01-21T00:17:26.366Z,102151.07
2019-01-21T00:20:30.354Z,102147.47
2019-01-21T00:23:34.273Z,102148.29
2019-01-21T00:26:38.128Z,102147.38
2019-01-21T00:29:41.943Z,102139.11
2019-01-21T00:32:45.757Z,102137.33
2019-01-21T00:35:49.717Z,102127.63
2019-01-21T00:38:53.659Z,102124.07
2019-01-21T00:41:57.544Z,102120.01
2019-01-21T00:45:01.455Z,102118.92
2019-01-21T00:48:05.477Z,102116.06
2019-01-21T00:51:09.336Z,102112.81
2019-01-21T00:54:13.197Z,102100.17
2019-01-21T00:57:17.117Z,102097.09
2019-01-21T01:00:25.658Z,102107.14
2019-01-21T01:03:29.474Z,102098.73
2019-01-21T01:06:33.322Z,102103.05
2019-01-21T01:09:37.239Z,102103.05
2019-01-21T01:12:41.143Z,102091.41
2019-01-21T01:15:45.051Z,102083.97
2019-01-21T01:18:48.915Z,102080.41
2019-01-21T01:21:52.887Z,102076.25
2019-01-21T01:24:56.811Z,102079.80
2019-01-21T01:28:00.604Z,102079.01
2019-01-21T01:31:04.508Z,102085.59
2019-01-21T01:34:08.329Z,102088.44
2019-01-21T01:37:12.224Z,102092.81
2019-01-21T01:40:18.019Z,102091.65
2019-01-21T01:43:21.992Z,102093.85
2019-01-21T01:46:25.953Z,102083.38
2019-01-21T01:49:29.841Z,102084.06
2019-01-21T01:52:33.752Z,102086.18
2019-01-21T01:55:37.642Z,102090.42
2019-01-21T01:58:41.509Z,102091.41
2019-01-21T02:01:45.399Z,102092.91
2019-01-21T02:04:49.311Z,102083.26
2019-01-21T02:07:53.254Z,102077.59
2019-01-21T02:10:57.182Z,102068.50
2019-01-21T02:14:01.071Z,102060.89
2019-01-21T02:17:05.064Z,102063.39
2019-01-21T02:20:11.190Z,102060.66
2019-01-21T02:23:17.577Z,102057.03
2019-01-21T02:26:24.903Z,102051.92
2019-01-21T02:29:54.348Z,102052.53
2019-01-21T02:33:34.338Z,102043.93
2019-01-21T02:37:22.103Z,102036.48
2019-01-21T02:40:32.864Z,102037.78
2019-01-21T02:43:58.096Z,102028.70
2019-01-21T02:47:33.380Z,102019.27
2019-01-21T02:51:18.197Z,102018.45
2019-01-21T02:54:44.611Z,102021.18
2019-01-21T02:58:32.053Z,102015.65
2019-01-21T03:02:41.453Z,102017.72
2019-01-21T03:06:03.212Z,102013.63
2019-01-21T03:09:36.941Z,102001.25
2019-01-21T03:13:34.395Z,101989.56
2019-01-21T03:17:12.998Z,101989.30
2019-01-21T03:20:43.515Z,101984.79
2019-01-21T03:24:20.492Z,101977.20
2019-01-21T03:28:05.436Z,101967.07
2019-01-21T03:32:05.446Z,101968.15
2019-01-21T03:35:29.320Z,101959.83
2019-01-21T03:39:06.108Z,101979.79
2019-01-21T03:42:54.123Z,101991.53
2019-01-21T03:46:13.850Z,101995.98
2019-01-21T03:49:28.994Z,101989.48
2019-01-21T03:53:35.117Z,101980.31
2019-01-21T03:57:00.640Z,101988.11
2019-01-21T04:00:37.689Z,101981.95
2019-01-21T04:04:15.805Z,101969.09
2019-01-21T04:07:28.576Z,101965.20
2019-01-21T04:10:51.743Z,101966.19
2019-01-21T04:14:42.833Z,101968.78
2019-01-21T04:18:27.962Z,101967.88
2019-01-21T04:21:52.333Z,101960.83
2019-01-21T04:25:11.106Z,101966.92
2019-01-21T04:28:52.446Z,101967.95
2019-01-21T04:32:34.990Z,101957.91
2019-01-21T04:36:01.643Z,101956.27
2019-01-21T04:39:22.884Z,101943.40
2019-01-21T04:42:59.439Z,101921.84
2019-01-21T04:46:40.118Z,101916.16
2019-01-21T04:50:43.433Z,101915.03
2019-01-21T04:54:25.671Z,101902.23
2019-01-21T04:58:10.166Z,101908.33
2019-01-21T05:02:11.549Z,101904.91
2019-01-21T05:05:57.753Z,101906.79
2019-01-21T05:09:47.159Z,101904.58
2019-01-21T05:13:38.117Z,101897.02
2019-01-21T05:17:03.297Z,101888.34
2019-01-21T05:20:40.831Z,101884.20
2019-01-21T05:24:29.710Z,101883.56
2019-01-21T05:27:46.416Z,101884.31
2019-01-21T05:31:42.169Z,101876.11
2019-01-21T05:35:24.600Z,101872.52
2019-01-21T05:39:12.429Z,101860.16
2019-01-21T05:42:46.612Z,101860.56
2019-01-21T05:46:03.955Z,101864.58
2019-01-21T05:49:33.774Z,101864.00
2019-01-21T05:53:18.692Z,101857.24
2019-01-21T05:56:53.047Z,101859.02
2019-01-21T06:00:34.637Z,101864.94
2019-01-21T06:04:03.143Z,101862.92
2019-01-21T06:07:37.816Z,101872.14
2019-01-21T06:10:54.176Z,101876.51
2019-01-21T06:14:22.401Z,101874.95
2019-01-21T06:18:03.601Z,101880.77
2019-01-21T06:21:53.799Z,101872.92
2019-01-21T06:25:26.324Z,101865.45
2019-01-21T06:29:05.647Z,101863.59
2019-01-21T06:32:48.097Z,101858.58
2019-01-21T06:36:00.360Z,101848.08
2019-01-21T06:39:44.218Z,101847.31
2019-01-21T06:43:28.580Z,101833.55
2019-01-21T06:47:19.440Z,101838.76
2019-01-21T06:51:18.735Z,101844.80
2019-01-21T06:55:18.650Z,101849.02
2019-01-21T06:58:57.342Z,101847.25
2019-01-21T07:02:45.287Z,101850.95
2019-01-21T07:06:21.274Z,101856.83
2019-01-21T07:10:27.726Z,101853.63
2019-01-21T07:14:19.371Z,101854.49
2019-01-21T07:17:54.852Z,101862.95
2019-01-21T07:21:37.014Z,101857.97
2019-01-21T07:25:06.510Z,101857.26
2019-01-21T07:28:43.201Z,101863.17
2019-01-21T07:32:09.543Z,101873.11
2019-01-21T07:35:26.164Z,101868.09
2019-01-21T07:38:55.445Z,101870.00
2019-01-21T07:42:21.590Z,101857.70
2019-01-21T07:45:56.411Z,101861.93
2019-01-21T07:49:42.126Z,101870.71
2019-01-21T07:53:27.308Z,101864.00
2019-01-21T07:57:26.658Z,101862.31
2019-01-21T08:00:58.293Z,101857.71
2019-01-21T08:04:33.230Z,101860.88
2019-01-21T08:08:21.451Z,101847.13
2019-01-21T08:11:55.913Z,101839.97
2019-01-21T08:15:29.323Z,101848.81
2019-01-21T08:19:02.149Z,101837.97
2019-01-21T08:22:38.467Z,101838.38
2019-01-21T08:26:26.484Z,101833.33
2019-01-21T08:29:48.742Z,101828.16
2019-01-21T08:33:32.400Z,101836.86
2019-01-21T08:37:09.432Z,101834.17
2019-01-21T08:41:01.235Z,101836.45
2019-01-21T08:44:30.606Z,101827.26
2019-01-21T08:47:48.958Z,101840.89
2019-01-21T08:51:15.794Z,101826.78
2019-01-21T08:54:36.288Z,101834.61
2019-01-21T08:58:13.493Z,101829.31
2019-01-21T09:02:00.618Z,101832.91
2019-01-21T09:06:04.122Z,101825.86
2019-01-21T09:09:46.338Z,101825.86
2019-01-21T09:13:19.600Z,101823.78
2019-01-21T09:16:42.366Z,101817.66
2019-01-21T09:20:15.586Z,101821.94
2019-01-21T09:23:33.419Z,101820.11
2019-01-21T09:27:14.194Z,101822.77
2019-01-21T09:30:30.175Z,101817.76
2019-01-21T09:33:50.861Z,101813.13
2019-01-21T09:37:15.842Z,101812.38
2019-01-21T09:40:41.187Z,101817.52
2019-01-21T09:43:56.610Z,101817.38
2019-01-21T09:46:59.007Z,101815.98
2019-01-21T09:50:03.536Z,101812.31
2019-01-21T09:53:07.508Z,101806.63
2019-01-21T09:56:11.519Z,101799.14
2019-01-21T09:59:15.387Z,101801.36
2019-01-21T10:02:24.218Z,101800.73
2019-01-21T10:05:31.900Z,101796.50
2019-01-21T10:08:54.377Z,101797.01
2019-01-21T10:12:35.586Z,101794.91
2019-01-21T10:16:10.931Z,101790.59
2019-01-21T10:19:50.723Z,101789.81
2019-01-21T10:23:26.100Z,101782.11
2019-01-21T10:27:15.903Z,101776.16
2019-01-21T10:31:10.109Z,101777.13
2019-01-21T10:34:35.759Z,101774.69
2019-01-21T10:38:19.571Z,101773.63
2019-01-21T10:41:58.475Z,101766.31
2019-01-21T10:45:40.734Z,101759.14
2019-01-21T10:49:21.281Z,101750.89
2019-01-21T10:53:18.775Z,101747.42
2019-01-21T10:56:47.506Z,101746.13
2019-01-21T11:00:15.885Z,101735.35
2019-01-21T11:03:36.557Z,101730.74
2019-01-21T11:07:23.014Z,101722.44
2019-01-21T11:11:12.525Z,101719.20
2019-01-21T11:14:48.502Z,101720.16
2019-01-21T11:18:16.815Z,101717.09
2019-01-21T11:21:30.741Z,101714.23
2019-01-21T11:25:01.048Z,101714.89
2019-01-21T11:28:34.726Z,101712.83
2019-01-21T11:32:11.869Z,101716.45
2019-01-21T11:35:44.909Z,101712.98
2019-01-21T11:39:25.174Z,101701.75
2019-01-21T11:42:56.217Z,101701.43
2019-01-21T11:46:39.770Z,101696.70
2019-01-21T11:50:27.637Z,101695.72
2019-01-21T11:54:15.602Z,101697.25
2019-01-21T11:58:06.489Z,101696.12
2019-01-21T12:02:02.403Z,101690.19
2019-01-21T12:05:23.619Z,101681.63
2019-01-21T12:08:52.909Z,101680.36
2019-01-21T12:12:02.276Z,101673.39
2019-01-21T12:15:45.805Z,101674.33
2019-01-21T12:19:13.901Z,101676.06
2019-01-21T12:22:59.777Z,101672.75
2019-01-21T12:26:44.947Z,101671.53
2019-01-21T12:30:20.781Z,101661.19
2019-01-21T12:34:11.719Z,101662.65
2019-01-21T12:37:29.420Z,101657.10
2019-01-21T12:41:07.078Z,101657.95
2019-01-21T12:44:50.729Z,101654.41
2019-01-21T12:48:19.171Z,101649.59
2019-01-21T12:51:34.631Z,101651.36
2019-01-21T12:55:10.523Z,101656.71
2019-01-21T12:58:51.978Z,101644.52
2019-01-21T13:02:08.689Z,101638.42
2019-01-21T13:05:29.435Z,101645.93
2019-01-21T13:09:06.616Z,101636.67
2019-01-21T13:12:39.018Z,101638.89
2019-01-21T13:16:04.217Z,101638.88
2019-01-21T13:19:52.376Z,101635.44
2019-01-21T13:23:13.249Z,101637.14
2019-01-21T13:27:02.979Z,101631.92
2019-01-21T13:30:41.950Z,101630.06
2019-01-21T13:34:14.054Z,101628.59
2019-01-21T13:37:41.395Z,101630.05
2019-01-21T13:41:37.666Z,101618.70
2019-01-21T13:45:09.359Z,101623.06
2019-01-21T13:48:41.467Z,101615.12
2019-01-21T13:52:33.713Z,101616.42
2019-01-21T13:55:51.017Z,101608.98
2019-01-21T13:59:33.233Z,101606.67
2019-01-21T14:03:03.480Z,101600.95
2019-01-21T14:06:34.859Z,101597.39
2019-01-21T14:10:23.617Z,101603.56
2019-01-21T14:13:45.517Z,101597.60
2019-01-21T14:17:15.911Z,101596.67
2019-01-21T14:20:33.690Z,101594.95
2019-01-21T14:23:53.294Z,101594.92
2019-01-21T14:27:10.575Z,101594.84
2019-01-21T14:30:26.402Z,101588.25
2019-01-21T14:33:49.950Z,101591.27
2019-01-21T14:37:09.422Z,101590.69
2019-01-21T14:40:23.602Z,101594.45
2019-01-21T14:44:07.577Z,101596.75
2019-01-21T14:47:55.044Z,101597.53
2019-01-21T14:51:33.631Z,101596.68
2019-01-21T14:55:06.993Z,101587.80
2019-01-21T14:58:45.039Z,101585.98
2019-01-21T15:02:14.709Z,101586.79
2019-01-21T15:05:46.159Z,101587.58
2019-01-21T15:09:08.141Z,101582.13
2019-01-21T15:12:29.539Z,101585.51
2019-01-21T15:15:55.659Z,101581.53
2019-01-21T15:19:27.566Z,101583.53
2019-01-21T15:22:57.329Z,101587.38
2019-01-21T15:26:25.923Z,101590.31
2019-01-21T15:30:11.813Z,101588.87
2019-01-21T15:33:31.606Z,101587.17
2019-01-21T15:36:58.691Z,101580.09
2019-01-21T15:40:28.534Z,101586.14
2019-01-21T15:43:46.411Z,101580.19
2019-01-21T15:47:49.430Z,101580.75
2019-01-21T15:51:04.981Z,101584.05
2019-01-21T15:54:39.821Z,101584.41
2019-01-21T15:57:49.566Z,101584.23
2019-01-21T16:01:14.799Z,101583.90
2019-01-21T16:04:40.425Z,101587.45
2019-01-21T16:08:18.536Z,101583.80
2019-01-21T16:11:35.437Z,101577.44
2019-01-21T16:15:05.121Z,101575.58
2019-01-21T16:18:23.649Z,101574.19
2019-01-21T16:22:07.830Z,101580.03
2019-01-21T16:25:31.579Z,101580.74
2019-01-21T16:29:07.059Z,101575.86
2019-01-21T16:32:35.471Z,101581.86
2019-01-21T16:36:00.583Z,101581.81
2019-01-21T16:39:21.826Z,101581.60
2019-01-21T16:42:24.227Z,101588.89
2019-01-21T16:45:28.068Z,101585.66
2019-01-21T16:48:31.891Z,101589.19
2019-01-21T16:51:35.766Z,101587.38
2019-01-21T16:54:39.648Z,101585.66
2019-01-21T16:57:43.579Z,101578.16
2019-01-21T17:00:47.362Z,101580.27
2019-01-21T17:03:51.177Z,101579.25
2019-01-21T17:06:55.132Z,101578.35
2019-01-21T17:09:58.973Z,101574.70
2019-01-21T17:13:02.860Z,101576.19
2019-01-21T17:16:06.856Z,101575.45
2019-01-21T17:19:10.809Z,101572.33
2019-01-21T17:22:14.661Z,101576.19
2019-01-21T17:25:18.610Z,101567.38
2019-01-21T17:28:22.580Z,101566.36
2019-01-21T17:31:26.487Z,101566.77
2019-01-21T17:34:30.472Z,101565.86
2019-01-21T17:37:34.271Z,101560.05
2019-01-21T17:40:38.176Z,101562.22
2019-01-21T17:43:41.996Z,101562.16
2019-01-21T17:46:45.790Z,101553.37
2019-01-21T17:49:49.632Z,101553.45
2019-01-21T17:52:53.433Z,101548.59
2019-01-21T17:55:57.249Z,101546.47
2019-01-21T17:59:01.162Z,101545.52
2019-01-21T18:02:05.137Z,101543.24
2019-01-21T18:05:09.105Z,101550.67
2019-01-21T18:08:12.910Z,101545.86
2019-01-21T18:11:16.869Z,101545.73
2019-01-21T18:14:20.754Z,101545.22
2019-01-21T18:17:24.578Z,101543.30
2019-01-21T18:20:28.463Z,101544.94
2019-01-21T18:23:32.330Z,101550.85
2019-01-21T18:26:36.137Z,101548.91
2019-01-21T18:29:39.945Z,101545.25
2019-01-21T18:32:43.910Z,101545.53
2019-01-21T18:35:47.873Z,101540.19
2019-01-21T18:38:51.828Z,101543.62
2019-01-21T18:41:55.818Z,101544.09
2019-01-21T18:44:59.627Z,101544.11
2019-01-21T18:48:03.593Z,101542.69
2019-01-21T18:51:07.491Z,101535.68
2019-01-21T18:54:11.312Z,101537.78
2019-01-21T18:57:15.187Z,101542.94
2019-01-21T19:00:21.680Z,101541.17
2019-01-21T19:03:25.492Z,101537.12
2019-01-21T19:06:29.316Z,101531.90
2019-01-21T19:09:33.188Z,101532.70
2019-01-21T19:12:37.006Z,101526.58
2019-01-21T19:15:40.874Z,101530.03
2019-01-21T19:18:44.707Z,101530.35
2019-01-21T19:21:53.528Z,101529.36
2019-01-21T19:24:54.104Z,101525.91
2019-01-21T19:27:58.066Z,101525.73
2019-01-21T19:31:02.016Z,101523.51
2019-01-21T19:34:06.483Z,101516.45
2019-01-21T19:37:10.345Z,101515.02
2019-01-21T19:40:17.739Z,101516.14
2019-01-21T19:43:21.659Z,101519.66
2019-01-21T19:46:25.556Z,101516.59
2019-01-21T19:49:29.391Z,101516.58
2019-01-21T19:52:33.291Z,101520.51
2019-01-21T19:55:39.648Z,101520.48
2019-01-21T19:58:43.547Z,101523.09
2019-01-21T20:01:47.558Z,101522.83
2019-01-21T20:04:51.406Z,101517.34
2019-01-21T20:07:55.321Z,101516.45
2019-01-21T20:10:59.167Z,101517.09
2019-01-21T20:14:03.062Z,101510.16
2019-01-21T20:17:06.979Z,101510.16
2019-01-21T20:20:14.187Z,101512.80
2019-01-21T20:23:18.095Z,101511.47
2019-01-21T20:26:22.045Z,101509.32
2019-01-21T20:29:25.893Z,101507.45
2019-01-21T20:32:29.719Z,101510.91
2019-01-21T20:35:33.532Z,101506.05
2019-01-21T20:38:37.495Z,101502.02
2019-01-21T20:41:41.405Z,101506.20
2019-01-21T20:44:45.216Z,101502.86
2019-01-21T20:47:49.134Z,101503.26
2019-01-21T20:50:52.968Z,101504.87
2019-01-21T20:53:56.759Z,101502.52
2019-01-21T20:57:00.642Z,101500.68
2019-01-21T21:00:06.870Z,101497.89
2019-01-21T21:03:10.919Z,101495.18
2019-01-21T21:06:15.077Z,101500.28
2019-01-21T21:09:19.233Z,101494.66
2019-01-21T21:12:25.985Z,101499.03
2019-01-21T21:15:31.549Z,101495.51
2019-01-21T21:18:35.721Z,101500.64
2019-01-21T21:21:39.860Z,101499.27
2019-01-21T21:24:44.043Z,101497.38
2019-01-21T21:27:48.286Z,101496.84
2019-01-21T21:30:52.455Z,101492.86
2019-01-21T21:33:56.618Z,101498.45
2019-01-21T21:37:00.776Z,101497.55
2019-01-21T21:40:06.227Z,101497.52
2019-01-21T21:43:10.388Z,101484.03
2019-01-21T21:46:14.620Z,101497.84
2019-01-21T21:49:18.787Z,101486.91
2019-01-21T21:52:27.789Z,101487.34
2019-01-21T21:55:29.772Z,101486.04
2019-01-21T21:58:34.060Z,101483.30
2019-01-21T22:01:40.134Z,101484.59
2019-01-21T22:04:44.082Z,101476.19
2019-01-21T22:07:48.510Z,101473.17
2019-01-21T22:10:52.684Z,101477.25
2019-01-21T22:13:56.828Z,101482.86
2019-01-21T22:17:01.016Z,101470.27
2019-01-21T22:20:06.986Z,101479.91
2019-01-21T22:23:11.145Z,101472.55
2019-01-21T22:26:15.262Z,101459.47
2019-01-21T22:29:19.387Z,101466.91
2019-01-21T22:32:23.189Z,101464.76
2019-01-21T22:35:27.038Z,101453.11
2019-01-21T22:38:30.903Z,101450.51
2019-01-21T22:41:34.705Z,101456.16
2019-01-21T22:44:38.535Z,101443.65
2019-01-21T22:47:42.492Z,101439.38
2019-01-21T22:50:47.979Z,101439.89
2019-01-21T22:53:51.804Z,101436.52
2019-01-21T22:56:55.695Z,101442.66
2019-01-21T22:59:59.837Z,101443.69
2019-01-21T23:03:03.809Z,101435.50
2019-01-21T23:06:07.717Z,101429.95
2019-01-21T23:09:11.666Z,101431.92
2019-01-21T23:12:15.582Z,101426.45
2019-01-21T23:15:19.474Z,101428.73
2019-01-21T23:18:23.296Z,101421.09
2019-01-21T23:21:27.491Z,101413.80
2019-01-21T23:24:31.307Z,101411.31
2019-01-21T23:27:35.214Z,101411.59
2019-01-21T23:30:39.059Z,101407.02
2019-01-21T23:33:42.872Z,101400.59
2019-01-21T23:36:46.698Z,101408.94
2019-01-21T23:39:50.520Z,101395.70
2019-01-21T23:42:54.343Z,101390.20
2019-01-21T23:45:58.157Z,101389.85
2019-01-21T23:49:02.020Z,101382.54
2019-01-21T23:52:06.107Z,101381.84
2019-01-21T23:55:10.368Z,101375.95
2019-01-21T23:58:14.190Z,101383.48
